Latest Coastal Weather Observations for Yeppoon

IDQ60701

Issued at 12:02 pm EST Saturday 2 July 2016 (issued every 10 minutes, with the page automatically refreshed every 10 minutes)

About coastal observations | Map of coastal stations | Coastal observations for QLD | Marine services | Other Formats
Station Details ID: 033294 Name: YEPPOON THE ESPLANADE Lat: -23.14 Lon: 150.75 Height: 5.5 m
Data from the previous 72 hours. | See also: Recent months at Yeppoon
Date/Time
EST
Temp
°C
Wind Pressure Rain since
9am
mm
Weather Cloud Vis
km
Sea
Height
m
Swell
Dir  Spd
kts
Gust
kts
hPa Trend Height
m
Period
s
Dir
02/12:00pm 18.8 E 11 14 1022.7 - 0.0 - - - - - - -
02/11:30am 19.5 E 6 9 1023.1 - 0.0 - - - - - - -
02/11:00am 19.2 SSE 4 7 1023.5 - 0.0 - - - - - - -
02/10:30am 18.3 SSE 5 7 1023.7 - 0.0 - - - - - - -
02/10:00am 17.3 S 4 7 1024.0 - 0.0 - - - - - - -
02/09:30am 16.3 SSE 6 8 1024.2 - 0.0 - - - - - - -
02/09:00am 15.2 S 6 9 1024.3 - 0.0 - - - - - - -
02/08:30am 14.3 S 7 11 1024.1 - 0.0 - - - - - - -
02/08:00am 12.5 SW 5 7 1023.9 - 0.0 - - - - - - -
02/07:30am 10.3 W 6 7 1023.8 - 0.0 - - - - - - -
02/07:00am 8.6 W 7 8 1023.5 - 0.0 - - - - - - -
02/06:30am 9.0 W 6 8 1023.1 - 0.0 - - - - - - -
02/06:00am 9.5 W 6 8 1022.7 - 0.0 - - - - - - -
02/05:30am 10.0 W 5 8 1022.2 - 0.0 - - - - - - -
02/05:00am 11.1 W 4 5 1021.9 - 0.0 - - - - - - -
02/04:30am 10.5 SSW 4 5 1021.6 - 0.0 - - - - - - -
02/04:00am 11.4 SSW 4 6 1021.4 - 0.0 - - - - - - -
02/03:30am 11.4 SW 3 5 1021.4 - 0.0 - - - - - - -
02/03:00am 12.6 SSW 6 8 1021.3 - 0.0 - - - - - - -
02/02:30am 11.9 SSW 5 7 1021.4 - 0.0 - - - - - - -
02/02:00am 12.0 SSW 4 5 1021.5 - 0.0 - - - - - - -
02/01:30am 12.1 SSW 5 5 1021.5 - 0.0 - - - - - - -
02/01:00am 12.7 SSW 3 5 1021.7 - 0.0 - - - - - - -
02/12:30am 14.2 S 3 5 1021.8 - 0.0 - - - - - - -
02/12:00am 14.7 SSW 6 8 1021.6 - 0.0 - - - - - - -
 
Date/Time
EST
Temp
°C
Wind Pressure Rain since
9am
mm
Weather Cloud Vis
km
Sea
Height
m
Swell
Dir  Spd
kts
Gust
kts
hPa Trend Height
m
Period
s
Dir
01/11:30pm 14.9 SSW 6 7 1021.6 - 0.0 - - - - - - -
01/11:00pm 15.0 SSW 6 7 1021.7 - 0.0 - - - - - - -
01/10:30pm 15.4 SSW 8 9 1021.7 - 0.0 - - - - - - -
01/10:00pm 15.4 SSW 8 9 1021.6 - 0.0 - - - - - - -
01/09:30pm 15.8 SSW 6 8 1021.6 - 0.0 - - - - - - -
01/09:00pm 15.3 WSW 6 7 1021.6 - 0.0 - - - - - - -
01/08:30pm 15.8 SW 3 4 1021.5 - 0.0 - - - - - - -
01/08:00pm 16.3 W 4 5 1021.3 - 0.0 - - - - - - -
01/07:30pm 17.0 W 5 6 1021.1 - 0.0 - - - - - - -
01/07:00pm 17.3 W 5 6 1020.6 - 0.0 - - - - - - -
01/06:30pm 17.8 SW 3 5 1020.1 - 0.0 - - - - - - -
01/06:00pm 18.8 WNW 3 4 1019.5 - 0.0 - - - - - - -
01/05:30pm 19.8 N 1 4 1019.1 - 0.0 - - - - - - -
01/05:00pm 20.3 N 2 5 1018.6 - 0.0 - - - - - - -
01/04:30pm 20.5 NNE 3 4 1018.4 - 0.0 - - - - - - -
01/04:00pm 21.0 NE 4 6 1018.2 - 0.0 - - - - - - -
01/03:30pm 20.9 NE 7 8 1017.9 - 0.0 - - - - - - -
01/03:00pm 21.2 NE 5 7 1017.9 - 0.0 - - - - - - -
01/02:30pm 21.2 NE 6 7 1018.1 - 0.0 - - - - - - -
01/02:00pm 20.9 ENE 7 9 1018.3 - 0.0 - - - - - - -
01/01:30pm 20.7 ENE 6 8 1018.7 - 0.0 - - - - - - -
01/01:00pm 19.9 ENE 7 8 1019.0 - 0.0 - - - - - - -
01/12:30pm 20.2 E 7 10 1019.5 - 0.0 - - - - - - -
01/12:00pm 20.6 ENE 7 8 1019.9 - 0.0 - - - - - - -
01/11:30am 20.1 ENE 7 8 1020.5 - 0.0 - - - - - - -
01/11:00am 20.4 ENE 7 7 1020.9 - 0.0 - - - - - - -
01/10:30am 20.4 NNE 4 5 1021.2 - 0.0 - - - - - - -
01/10:00am 19.7 NE 4 5 1021.4 - 0.0 - - - - - - -
01/09:30am 18.6 WSW 4 5 1021.6 - 0.0 - - - - - - -
01/09:00am 17.1 W 6 7 1021.7 - 0.0 - - - - - - -
01/08:30am 15.5 WSW 4 7 1021.7 - 0.0 - - - - - - -
01/08:00am 14.3 W 6 7 1021.4 - 0.0 - - - - - - -
01/07:30am 13.3 WSW 6 7 1021.2 - 0.0 - - - - - - -
01/07:00am 11.9 W 7 8 1021.0 - 0.0 - - - - - - -
01/06:30am 12.0 W 6 8 1020.5 - 0.0 - - - - - - -
01/06:00am 12.2 W 7 8 1020.2 - 0.0 - - - - - - -
01/05:30am 12.9 WSW 4 5 1019.8 - 0.0 - - - - - - -
01/05:00am 13.0 W 5 7 1019.5 - 0.0 - - - - - - -
01/04:30am 13.1 WSW 4 6 1019.4 - 0.0 - - - - - - -
01/04:00am 12.9 W 6 7 1019.3 - 0.0 - - - - - - -
01/03:30am 13.1 W 5 7 1019.3 - 0.0 - - - - - - -
01/03:00am 13.6 W 5 7 1019.2 - 0.0 - - - - - - -
01/02:30am 13.6 W 5 5 1019.3 - 0.0 - - - - - - -
01/02:00am 13.7 WSW 4 5 1019.5 - 0.0 - - - - - - -
01/01:30am 14.7 WSW 5 6 1020.0 - 0.0 - - - - - - -
01/01:00am 15.0 W 6 7 1020.2 - 0.0 - - - - - - -
01/12:30am 14.7 W 6 7 1020.3 - 0.0 - - - - - - -
01/12:00am 15.3 WSW 5 7 1020.2 - 0.0 - - - - - - -
 
Date/Time
EST
Temp
°C
Wind Pressure Rain since
9am
mm
Weather Cloud Vis
km
Sea
Height
m
Swell
Dir  Spd
kts
Gust
kts
hPa Trend Height
m
Period
s
Dir
30/11:30pm 15.3 W 7 8 1020.5 - 0.0 - - - - - - -
30/11:00pm 15.3 W 5 7 1020.8 - 0.0 - - - - - - -
30/10:30pm 14.8 SW 3 4 1020.9 - 0.0 - - - - - - -
30/10:00pm 15.6 W 5 6 1021.1 - 0.0 - - - - - - -
30/09:30pm 15.8 W 5 6 1021.2 - 0.0 - - - - - - -
30/09:00pm 15.6 W 5 7 1021.3 - 0.0 - - - - - - -
30/08:30pm 15.9 SW 3 4 1021.4 - 0.0 - - - - - - -
30/08:00pm 16.6 W 4 5 1021.4 - 0.0 - - - - - - -
30/07:30pm 16.6 W 1 4 1021.3 - 0.0 - - - - - - -
30/07:00pm 17.3 CALM 0 0 1020.8 - 0.0 - - - - - - -
30/06:30pm 19.1 NE 4 5 1020.6 - 0.0 - - - - - - -
30/06:00pm 19.5 ENE 5 6 1020.4 - 0.0 - - - - - - -
30/05:30pm 19.6 E 5 7 1020.1 - 0.0 - - - - - - -
30/05:00pm 19.9 E 7 9 1020.0 - 0.0 - - - - - - -
30/04:30pm 20.1 E 8 9 1019.8 - 0.0 - - - - - - -
30/04:00pm 20.3 ENE 7 9 1019.8 - 0.0 - - - - - - -
30/03:30pm 20.2 ENE 6 8 1019.8 - 0.0 - - - - - - -
30/03:00pm 20.4 ENE 7 8 1019.9 - 0.0 - - - - - - -
30/02:30pm 21.0 E 9 11 1020.1 - 0.0 - - - - - - -
30/02:00pm 21.5 ESE 7 10 1020.2 - 0.0 - - - - - - -
30/01:30pm 21.3 E 8 12 1020.3 - 0.0 - - - - - - -
30/01:00pm 21.5 E 9 12 1020.6 - 0.0 - - - - - - -
30/12:30pm 21.1 ESE 9 12 1021.1 - 0.0 - - - - - - -
30/12:00pm 20.7 ESE 8 13 1021.6 - 0.0 - - - - - - -
30/11:30am 20.3 ESE 8 12 1022.0 - 0.0 - - - - - - -
30/11:00am 19.9 SE 8 12 1022.4 - 0.0 - - - - - - -
30/10:30am 19.9 SE 8 12 1022.5 - 0.0 - - - - - - -
30/10:00am 19.3 SSE 6 9 1022.9 - 0.0 - - - - - - -
30/09:30am 18.2 SSE 8 11 1022.9 - 0.0 - - - - - - -
30/09:00am 17.0 SSE 7 14 1023.1 - 0.0 - - - - - - -
30/08:30am 16.2 S 7 11 1023.1 - 0.0 - - - - - - -
30/08:00am 14.7 SW 4 6 1022.8 - 0.0 - - - - - - -
30/07:30am 13.7 SW 6 8 1022.6 - 0.0 - - - - - - -
30/07:00am 12.8 WSW 5 7 1022.5 - 0.0 - - - - - - -
30/06:30am 12.3 W 6 7 1022.4 - 0.0 - - - - - - -
30/06:00am 12.0 W 7 8 1022.1 - 0.0 - - - - - - -
30/05:30am 12.4 WSW 6 7 1022.0 - 0.0 - - - - - - -
30/05:00am 11.9 WSW 5 6 1021.7 - 0.0 - - - - - - -
30/04:30am 11.6 SW 4 5 1021.7 - 0.0 - - - - - - -
30/04:00am 11.6 WSW 6 8 1021.7 - 0.0 - - - - - - -
30/03:30am 11.9 WSW 6 7 1021.8 - 0.0 - - - - - - -
30/03:00am 12.2 WSW 6 7 1022.2 - 0.0 - - - - - - -
30/02:30am 12.6 WSW 7 8 1022.4 - 0.0 - - - - - - -
30/02:00am 12.7 WSW 6 7 1022.7 - 0.0 - - - - - - -
30/01:30am 12.6 WSW 6 7 1023.1 - 0.0 - - - - - - -
30/01:00am 12.2 W 7 8 1023.4 - 0.0 - - - - - - -
30/12:30am 12.2 WSW 6 7 1023.3 - 0.0 - - - - - - -
30/12:00am 11.9 WSW 6 7 1023.5 - 0.0 - - - - - - -
 
Date/Time
EST
Temp
°C
Wind Pressure Rain since
9am
mm
Weather Cloud Vis
km
Sea
Height
m
Swell
Dir  Spd
kts
Gust
kts
hPa Trend Height
m
Period
s
Dir
29/11:30pm 11.8 WSW 5 6 1023.8 - 0.0 - - - - - - -
29/11:00pm 11.2 SW 5 6 1024.1 - 0.0 - - - - - - -
29/10:30pm 11.2 W 7 7 1024.0 - 0.0 - - - - - - -
29/10:00pm 11.2 W 8 9 1024.4 - 0.0 - - - - - - -
29/09:30pm 11.4 W 8 9 1024.4 - 0.0 - - - - - - -
29/09:00pm 11.2 W 7 9 1024.3 - 0.0 - - - - - - -
29/08:30pm 11.9 W 8 9 1024.3 - 0.0 - - - - - - -
29/08:00pm 12.3 W 7 8 1024.2 - 0.0 - - - - - - -
29/07:30pm 12.6 W 6 7 1024.0 - 0.0 - - - - - - -
29/07:00pm 13.1 W 6 7 1024.0 - 0.0 - - - - - - -
29/06:30pm 14.0 W 3 3 1023.9 - 0.0 - - - - - - -
29/06:00pm 15.1 W 5 6 1023.5 - 0.0 - - - - - - -
29/05:30pm 17.4 ENE 2 4 1023.4 - 0.0 - - - - - - -
29/05:00pm 17.7 ENE 3 4 1023.2 - 0.0 - - - - - - -
29/04:30pm 18.0 E 4 5 1023.1 - 0.0 - - - - - - -
29/04:00pm 18.3 E 6 8 1023.2 - 0.0 - - - - - - -
29/03:30pm 18.7 E 8 9 1023.0 - 0.0 - - - - - - -
29/03:00pm 19.0 E 8 11 1022.9 - 0.0 - - - - - - -
29/02:30pm 19.0 ESE 8 11 1022.7 - 0.0 - - - - - - -
29/02:00pm 18.9 SE 9 12 1022.9 - 0.0 - - - - - - -
29/01:30pm 18.9 ESE 8 14 1023.0 - 0.0 - - - - - - -
29/01:00pm 18.5 ESE 8 11 1023.4 - 0.0 - - - - - - -
29/12:30pm 17.7 ENE 8 10 1023.9 - 0.0 - - - - - - -

Other Formats:

Comma delimited format used in spreadsheet applications
http://www.bom.gov.au/fwo/IDQ60701/IDQ60701.94373.axf

JavaScript Object Notation format (JSON) in row-major order
http://www.bom.gov.au/fwo/IDQ60701/IDQ60701.94373.json